sensor_id;sensor_type;location;lat;lon;timestamp;pressure;altitude;pressure_sealevel;temperature;humidity
64460;BME280;50828;53.756;21.140;2023-03-14T00:04:58;97879.19;;;8.72;73.58
64460;BME280;50828;53.756;21.140;2023-03-14T00:10:08;97883.17;;;8.75;73.49
64460;BME280;50828;53.756;21.140;2023-03-14T00:15:17;97887.73;;;8.78;73.40
64460;BME280;50828;53.756;21.140;2023-03-14T00:20:26;97896.20;;;8.80;73.34
64460;BME280;50828;53.756;21.140;2023-03-14T00:25:33;97898.63;;;8.83;73.26
64460;BME280;50828;53.756;21.140;2023-03-14T00:30:42;97895.17;;;8.85;73.16
64460;BME280;50828;53.756;21.140;2023-03-14T00:35:57;97887.91;;;8.86;73.36
64460;BME280;50828;53.756;21.140;2023-03-14T00:41:10;97879.91;;;8.88;73.12
64460;BME280;50828;53.756;21.140;2023-03-14T00:46:20;97875.09;;;8.89;73.18
64460;BME280;50828;53.756;21.140;2023-03-14T00:51:27;97869.92;;;8.90;73.05
64460;BME280;50828;53.756;21.140;2023-03-14T00:56:36;97848.95;;;8.88;72.82
64460;BME280;50828;53.756;21.140;2023-03-14T01:01:44;97837.80;;;8.90;72.99
64460;BME280;50828;53.756;21.140;2023-03-14T01:06:53;97830.48;;;8.89;73.03
64460;BME280;50828;53.756;21.140;2023-03-14T01:12:01;97826.45;;;8.89;73.06
64460;BME280;50828;53.756;21.140;2023-03-14T01:17:10;97822.07;;;8.89;72.96
64460;BME280;50828;53.756;21.140;2023-03-14T01:22:18;97818.38;;;8.89;73.02
64460;BME280;50828;53.756;21.140;2023-03-14T01:27:27;97812.80;;;8.88;72.71
64460;BME280;50828;53.756;21.140;2023-03-14T01:32:36;97792.73;;;8.89;72.90
64460;BME280;50828;53.756;21.140;2023-03-14T01:37:45;97793.91;;;8.90;72.62
64460;BME280;50828;53.756;21.140;2023-03-14T01:43:13;97793.85;;;8.90;72.82
64460;BME280;50828;53.756;21.140;2023-03-14T01:48:22;97793.93;;;8.92;72.54
64460;BME280;50828;53.756;21.140;2023-03-14T01:53:31;97796.52;;;8.93;72.70
64460;BME280;50828;53.756;21.140;2023-03-14T01:58:41;97790.67;;;8.93;72.74
64460;BME280;50828;53.756;21.140;2023-03-14T02:03:52;97785.63;;;8.95;72.65
64460;BME280;50828;53.756;21.140;2023-03-14T02:09:02;97786.19;;;8.97;72.60
64460;BME280;50828;53.756;21.140;2023-03-14T02:14:19;97764.18;;;8.98;72.45
64460;BME280;50828;53.756;21.140;2023-03-14T02:20:10;97751.84;;;8.99;72.44
64460;BME280;50828;53.756;21.140;2023-03-14T02:25:29;97747.58;;;8.99;72.53
64460;BME280;50828;53.756;21.140;2023-03-14T02:30:41;97748.98;;;8.99;72.32
64460;BME280;50828;53.756;21.140;2023-03-14T02:35:55;97748.58;;;8.98;72.36
64460;BME280;50828;53.756;21.140;2023-03-14T02:41:05;97741.29;;;8.97;72.16
64460;BME280;50828;53.756;21.140;2023-03-14T02:46:20;97744.17;;;8.95;72.06
64460;BME280;50828;53.756;21.140;2023-03-14T02:51:29;97739.31;;;8.95;71.91
64460;BME280;50828;53.756;21.140;2023-03-14T02:56:37;97736.22;;;8.94;71.87
64460;BME280;50828;53.756;21.140;2023-03-14T03:01:45;97725.56;;;8.93;71.94
64460;BME280;50828;53.756;21.140;2023-03-14T03:06:53;97721.35;;;8.93;71.87
64460;BME280;50828;53.756;21.140;2023-03-14T03:12:02;97728.66;;;8.94;71.70
64460;BME280;50828;53.756;21.140;2023-03-14T03:17:11;97736.89;;;8.94;71.61
64460;BME280;50828;53.756;21.140;2023-03-14T03:22:20;97728.70;;;8.93;71.58
64460;BME280;50828;53.756;21.140;2023-03-14T03:27:28;97736.15;;;8.92;71.46
64460;BME280;50828;53.756;21.140;2023-03-14T03:32:37;97732.76;;;8.91;71.09
64460;BME280;50828;53.756;21.140;2023-03-14T03:37:46;97743.27;;;8.91;71.17
64460;BME280;50828;53.756;21.140;2023-03-14T03:42:54;97752.97;;;8.90;70.84
64460;BME280;50828;53.756;21.140;2023-03-14T03:48:03;97758.86;;;8.89;70.70
64460;BME280;50828;53.756;21.140;2023-03-14T03:53:12;97761.13;;;8.87;70.56
64460;BME280;50828;53.756;21.140;2023-03-14T03:58:30;97770.83;;;8.84;70.27
64460;BME280;50828;53.756;21.140;2023-03-14T04:03:39;97779.48;;;8.77;70.07
64460;BME280;50828;53.756;21.140;2023-03-14T04:08:48;97767.70;;;8.71;70.07
64460;BME280;50828;53.756;21.140;2023-03-14T04:14:16;97761.04;;;8.71;70.40
64460;BME280;50828;53.756;21.140;2023-03-14T04:19:25;97764.33;;;8.71;70.13
64460;BME280;50828;53.756;21.140;2023-03-14T04:24:35;97764.77;;;8.62;69.82
64460;BME280;50828;53.756;21.140;2023-03-14T04:29:44;97762.84;;;8.60;69.69
64460;BME280;50828;53.756;21.140;2023-03-14T04:34:54;97768.72;;;8.53;69.69
64460;BME280;50828;53.756;21.140;2023-03-14T04:40:03;97777.67;;;8.55;70.31
64460;BME280;50828;53.756;21.140;2023-03-14T04:45:13;97778.03;;;8.60;69.93
64460;BME280;50828;53.756;21.140;2023-03-14T04:50:23;97771.60;;;8.60;69.60
64460;BME280;50828;53.756;21.140;2023-03-14T04:55:30;97767.65;;;8.56;69.75
64460;BME280;50828;53.756;21.140;2023-03-14T05:00:38;97755.80;;;8.52;69.75
64460;BME280;50828;53.756;21.140;2023-03-14T05:05:57;97752.17;;;8.56;69.84
64460;BME280;50828;53.756;21.140;2023-03-14T05:11:23;97754.82;;;8.59;69.62
64460;BME280;50828;53.756;21.140;2023-03-14T05:16:50;97753.95;;;8.56;69.45
64460;BME280;50828;53.756;21.140;2023-03-14T05:22:21;97736.54;;;8.52;69.50
64460;BME280;50828;53.756;21.140;2023-03-14T05:27:50;97726.16;;;8.55;69.58
64460;BME280;50828;53.756;21.140;2023-03-14T05:33:31;97726.08;;;8.56;69.58
64460;BME280;50828;53.756;21.140;2023-03-14T05:39:06;97718.09;;;8.52;69.19
64460;BME280;50828;53.756;21.140;2023-03-14T05:44:32;97704.62;;;8.46;69.31
64460;BME280;50828;53.756;21.140;2023-03-14T05:50:02;97707.77;;;8.49;69.65
64460;BME280;50828;53.756;21.140;2023-03-14T05:55:40;97691.33;;;8.51;69.49
64460;BME280;50828;53.756;21.140;2023-03-14T06:01:09;97676.11;;;8.48;69.42
64460;BME280;50828;53.756;21.140;2023-03-14T06:06:38;97693.61;;;8.43;69.41
64460;BME280;50828;53.756;21.140;2023-03-14T06:11:48;97692.48;;;8.47;69.59
64460;BME280;50828;53.756;21.140;2023-03-14T06:16:57;97693.63;;;8.51;69.26
64460;BME280;50828;53.756;21.140;2023-03-14T06:22:09;97696.02;;;8.49;68.91
64460;BME280;50828;53.756;21.140;2023-03-14T06:27:18;97709.06;;;8.46;68.98
64460;BME280;50828;53.756;21.140;2023-03-14T06:32:27;97719.46;;;8.42;68.81
64460;BME280;50828;53.756;21.140;2023-03-14T06:37:39;97732.44;;;8.45;68.97
64460;BME280;50828;53.756;21.140;2023-03-14T06:42:48;97750.84;;;8.48;68.86
64460;BME280;50828;53.756;21.140;2023-03-14T06:47:57;97744.02;;;8.45;68.72
64460;BME280;50828;53.756;21.140;2023-03-14T06:53:13;97746.30;;;8.40;69.03
64460;BME280;50828;53.756;21.140;2023-03-14T06:58:22;97737.29;;;8.43;69.46
64460;BME280;50828;53.756;21.140;2023-03-14T07:03:30;97739.83;;;8.45;69.50
64460;BME280;50828;53.756;21.140;2023-03-14T07:08:39;97737.14;;;8.40;69.42
64460;BME280;50828;53.756;21.140;2023-03-14T07:13:50;97739.80;;;8.35;69.22
64460;BME280;50828;53.756;21.140;2023-03-14T07:18:59;97728.48;;;8.28;69.16
64460;BME280;50828;53.756;21.140;2023-03-14T07:24:08;97727.85;;;8.25;69.33
64460;BME280;50828;53.756;21.140;2023-03-14T07:29:17;97717.92;;;8.23;69.53
64460;BME280;50828;53.756;21.140;2023-03-14T07:34:26;97725.38;;;8.25;69.53
64460;BME280;50828;53.756;21.140;2023-03-14T07:39:35;97724.80;;;8.28;69.49
64460;BME280;50828;53.756;21.140;2023-03-14T07:44:49;97719.23;;;8.33;69.68
64460;BME280;50828;53.756;21.140;2023-03-14T07:49:59;97697.96;;;8.38;69.43
64460;BME280;50828;53.756;21.140;2023-03-14T07:55:09;97691.48;;;8.46;69.56
64460;BME280;50828;53.756;21.140;2023-03-14T08:00:22;97668.02;;;8.56;69.44
64460;BME280;50828;53.756;21.140;2023-03-14T08:05:30;97666.86;;;8.67;69.47
64460;BME280;50828;53.756;21.140;2023-03-14T08:10:39;97671.45;;;8.79;69.27
64460;BME280;50828;53.756;21.140;2023-03-14T08:15:49;97670.08;;;8.89;69.21
64460;BME280;50828;53.756;21.140;2023-03-14T08:20:57;97674.52;;;8.98;68.87
64460;BME280;50828;53.756;21.140;2023-03-14T08:26:07;97675.95;;;9.07;68.79
64460;BME280;50828;53.756;21.140;2023-03-14T08:31:16;97670.16;;;9.26;68.95
64460;BME280;50828;53.756;21.140;2023-03-14T08:36:24;97684.88;;;9.46;68.02
64460;BME280;50828;53.756;21.140;2023-03-14T08:41:33;97688.86;;;9.58;67.24
64460;BME280;50828;53.756;21.140;2023-03-14T08:46:46;97691.80;;;9.71;66.82
64460;BME280;50828;53.756;21.140;2023-03-14T08:51:55;97685.34;;;9.82;66.42
64460;BME280;50828;53.756;21.140;2023-03-14T08:57:03;97672.77;;;9.92;66.62
64460;BME280;50828;53.756;21.140;2023-03-14T09:02:15;97660.98;;;10.02;66.02
64460;BME280;50828;53.756;21.140;2023-03-14T09:07:28;97637.06;;;10.13;66.14
64460;BME280;50828;53.756;21.140;2023-03-14T09:12:37;97628.44;;;10.27;66.21
64460;BME280;50828;53.756;21.140;2023-03-14T09:17:46;97622.27;;;10.41;65.91
64460;BME280;50828;53.756;21.140;2023-03-14T09:22:54;97600.61;;;10.52;65.52
64460;BME280;50828;53.756;21.140;2023-03-14T09:28:03;97603.67;;;10.60;65.01
64460;BME280;50828;53.756;21.140;2023-03-14T09:33:12;97612.66;;;10.67;64.71
64460;BME280;50828;53.756;21.140;2023-03-14T09:38:20;97616.98;;;10.70;64.37
64460;BME280;50828;53.756;21.140;2023-03-14T09:43:31;97610.07;;;10.72;63.91
64460;BME280;50828;53.756;21.140;2023-03-14T09:48:40;97603.55;;;10.75;64.41
64460;BME280;50828;53.756;21.140;2023-03-14T09:53:49;97602.59;;;10.78;64.56
64460;BME280;50828;53.756;21.140;2023-03-14T09:58:59;97602.61;;;10.82;64.43
64460;BME280;50828;53.756;21.140;2023-03-14T10:04:14;97596.34;;;10.88;64.24
64460;BME280;50828;53.756;21.140;2023-03-14T10:09:24;97590.51;;;10.90;64.18
64460;BME280;50828;53.756;21.140;2023-03-14T10:14:35;97598.66;;;10.92;63.80
64460;BME280;50828;53.756;21.140;2023-03-14T10:19:54;97599.00;;;10.92;63.30
64460;BME280;50828;53.756;21.140;2023-03-14T10:25:04;97601.11;;;10.94;63.68
64460;BME280;50828;53.756;21.140;2023-03-14T10:30:42;97606.48;;;10.98;63.63
64460;BME280;50828;53.756;21.140;2023-03-14T10:35:56;97601.06;;;11.08;63.83
64460;BME280;50828;53.756;21.140;2023-03-14T10:41:17;97595.07;;;11.21;64.00
64460;BME280;50828;53.756;21.140;2023-03-14T10:46:29;97576.95;;;11.33;64.33
64460;BME280;50828;53.756;21.140;2023-03-14T10:52:21;97566.89;;;11.48;64.33
64460;BME280;50828;53.756;21.140;2023-03-14T10:57:42;97561.73;;;11.66;63.89
64460;BME280;50828;53.756;21.140;2023-03-14T11:03:04;97551.95;;;11.79;63.86
64460;BME280;50828;53.756;21.140;2023-03-14T11:08:23;97546.02;;;11.88;63.39
64460;BME280;50828;53.756;21.140;2023-03-14T11:13:37;97538.23;;;11.98;63.28
64460;BME280;50828;53.756;21.140;2023-03-14T11:19:02;97549.18;;;12.09;62.94
64460;BME280;50828;53.756;21.140;2023-03-14T11:29:55;97544.98;;;12.39;62.59
64460;BME280;50828;53.756;21.140;2023-03-14T11:35:17;97549.17;;;12.54;62.37
64460;BME280;50828;53.756;21.140;2023-03-14T11:40:28;97543.36;;;12.63;60.45
64460;BME280;50828;53.756;21.140;2023-03-14T11:45:38;97552.95;;;12.66;60.76
64460;BME280;50828;53.756;21.140;2023-03-14T11:50:49;97546.86;;;12.68;60.03
64460;BME280;50828;53.756;21.140;2023-03-14T11:55:59;97541.67;;;12.69;59.66
64460;BME280;50828;53.756;21.140;2023-03-14T12:01:09;97529.56;;;12.68;59.61
64460;BME280;50828;53.756;21.140;2023-03-14T12:06:22;97504.88;;;12.65;59.89
64460;BME280;50828;53.756;21.140;2023-03-14T12:11:38;97503.98;;;12.61;59.59
64460;BME280;50828;53.756;21.140;2023-03-14T12:16:52;97520.98;;;12.61;59.87
64460;BME280;50828;53.756;21.140;2023-03-14T12:22:23;97536.80;;;12.60;60.00
64460;BME280;50828;53.756;21.140;2023-03-14T12:33:41;97545.02;;;12.61;59.88
64460;BME280;50828;53.756;21.140;2023-03-14T12:39:01;97550.60;;;12.58;60.19
64460;BME280;50828;53.756;21.140;2023-03-14T12:44:43;97558.50;;;12.52;60.11
64460;BME280;50828;53.756;21.140;2023-03-14T12:49:54;97569.60;;;12.44;60.04
64460;BME280;50828;53.756;21.140;2023-03-14T12:55:06;97574.52;;;12.37;60.22
64460;BME280;50828;53.756;21.140;2023-03-14T13:00:22;97580.02;;;12.28;60.18
64460;BME280;50828;53.756;21.140;2023-03-14T13:05:32;97585.52;;;12.20;60.33
64460;BME280;50828;53.756;21.140;2023-03-14T13:10:48;97589.65;;;12.17;60.84
64460;BME280;50828;53.756;21.140;2023-03-14T13:15:59;97599.48;;;12.16;61.12
64460;BME280;50828;53.756;21.140;2023-03-14T13:21:13;97597.05;;;12.15;61.00
64460;BME280;50828;53.756;21.140;2023-03-14T13:26:25;97597.06;;;12.15;60.84
64460;BME280;50828;53.756;21.140;2023-03-14T13:31:34;97595.52;;;12.12;60.80
64460;BME280;50828;53.756;21.140;2023-03-14T13:36:43;97595.55;;;12.09;61.19
64460;BME280;50828;53.756;21.140;2023-03-14T13:41:51;97594.46;;;12.06;61.35
64460;BME280;50828;53.756;21.140;2023-03-14T13:47:02;97595.70;;;12.02;61.60
64460;BME280;50828;53.756;21.140;2023-03-14T13:57:49;97593.41;;;12.02;62.34
64460;BME280;50828;53.756;21.140;2023-03-14T14:03:01;97593.17;;;11.94;62.69
64460;BME280;50828;53.756;21.140;2023-03-14T14:08:12;97586.72;;;11.89;62.89
64460;BME280;50828;53.756;21.140;2023-03-14T14:13:25;97577.89;;;11.83;62.89
64460;BME280;50828;53.756;21.140;2023-03-14T14:18:35;97564.49;;;11.77;63.20
64460;BME280;50828;53.756;21.140;2023-03-14T14:23:44;97561.60;;;11.71;63.20
64460;BME280;50828;53.756;21.140;2023-03-14T14:29:04;97556.95;;;11.66;63.62
64460;BME280;50828;53.756;21.140;2023-03-14T14:34:22;97548.66;;;11.62;63.85
64460;BME280;50828;53.756;21.140;2023-03-14T14:39:32;97539.51;;;11.59;64.23
64460;BME280;50828;53.756;21.140;2023-03-14T14:44:41;97550.02;;;11.58;64.21
64460;BME280;50828;53.756;21.140;2023-03-14T14:49:52;97564.30;;;11.58;64.50
64460;BME280;50828;53.756;21.140;2023-03-14T14:55:02;97566.44;;;11.55;64.43
64460;BME280;50828;53.756;21.140;2023-03-14T15:00:20;97566.62;;;11.53;64.60
64460;BME280;50828;53.756;21.140;2023-03-14T15:05:29;97567.15;;;11.49;64.48
64460;BME280;50828;53.756;21.140;2023-03-14T15:10:43;97574.66;;;11.46;65.13
64460;BME280;50828;53.756;21.140;2023-03-14T15:15:52;97582.86;;;11.43;64.68
64460;BME280;50828;53.756;21.140;2023-03-14T15:21:02;97581.44;;;11.38;65.11
64460;BME280;50828;53.756;21.140;2023-03-14T15:26:15;97565.71;;;11.35;64.78
64460;BME280;50828;53.756;21.140;2023-03-14T15:31:24;97560.07;;;11.31;64.90
64460;BME280;50828;53.756;21.140;2023-03-14T15:36:34;97553.23;;;11.28;65.46
64460;BME280;50828;53.756;21.140;2023-03-14T15:41:43;97544.27;;;11.15;65.50
64460;BME280;50828;53.756;21.140;2023-03-14T15:46:52;97569.27;;;11.19;65.39
64460;BME280;50828;53.756;21.140;2023-03-14T15:52:01;97572.58;;;11.15;65.68
64460;BME280;50828;53.756;21.140;2023-03-14T15:57:11;97574.06;;;11.13;65.47
64460;BME280;50828;53.756;21.140;2023-03-14T16:02:21;97580.01;;;11.09;65.82
64460;BME280;50828;53.756;21.140;2023-03-14T16:07:29;97591.34;;;11.06;65.98
64460;BME280;50828;53.756;21.140;2023-03-14T16:12:39;97590.83;;;11.04;65.88
64460;BME280;50828;53.756;21.140;2023-03-14T16:17:48;97600.13;;;11.00;65.61
64460;BME280;50828;53.756;21.140;2023-03-14T16:23:00;97586.18;;;10.98;66.01
64460;BME280;50828;53.756;21.140;2023-03-14T16:28:08;97583.75;;;10.96;65.69
64460;BME280;50828;53.756;21.140;2023-03-14T16:33:17;97593.17;;;10.92;66.13
64460;BME280;50828;53.756;21.140;2023-03-14T16:38:26;97596.23;;;10.90;65.93
64460;BME280;50828;53.756;21.140;2023-03-14T16:43:40;97602.48;;;10.86;65.81
64460;BME280;50828;53.756;21.140;2023-03-14T16:48:49;97602.92;;;10.82;65.91
64460;BME280;50828;53.756;21.140;2023-03-14T16:53:57;97608.13;;;10.79;66.45
64460;BME280;50828;53.756;21.140;2023-03-14T16:59:06;97620.39;;;10.76;65.90
64460;BME280;50828;53.756;21.140;2023-03-14T17:04:15;97620.35;;;10.72;66.25
64460;BME280;50828;53.756;21.140;2023-03-14T17:09:23;97622.40;;;10.68;66.47
64460;BME280;50828;53.756;21.140;2023-03-14T17:14:32;97626.85;;;10.63;66.17
64460;BME280;50828;53.756;21.140;2023-03-14T17:19:39;97628.30;;;10.58;66.20
64460;BME280;50828;53.756;21.140;2023-03-14T17:24:48;97622.70;;;10.55;66.75
64460;BME280;50828;53.756;21.140;2023-03-14T17:29:56;97623.85;;;10.52;66.37
64460;BME280;50828;53.756;21.140;2023-03-14T17:35:05;97629.20;;;10.49;66.41
64460;BME280;50828;53.756;21.140;2023-03-14T17:40:14;97639.11;;;10.46;66.80
64460;BME280;50828;53.756;21.140;2023-03-14T17:45:23;97646.14;;;10.44;66.79
64460;BME280;50828;53.756;21.140;2023-03-14T17:50:31;97652.91;;;10.40;66.70
64460;BME280;50828;53.756;21.140;2023-03-14T17:55:39;97654.16;;;10.36;67.01
64460;BME280;50828;53.756;21.140;2023-03-14T18:00:48;97656.48;;;10.35;67.00
64460;BME280;50828;53.756;21.140;2023-03-14T18:05:56;97657.43;;;10.32;67.15
64460;BME280;50828;53.756;21.140;2023-03-14T18:11:04;97652.89;;;10.29;67.00
64460;BME280;50828;53.756;21.140;2023-03-14T18:16:13;97652.52;;;10.27;67.26
64460;BME280;50828;53.756;21.140;2023-03-14T18:21:23;97657.77;;;10.25;67.41
64460;BME280;50828;53.756;21.140;2023-03-14T18:26:32;97661.98;;;10.23;67.01
64460;BME280;50828;53.756;21.140;2023-03-14T18:31:43;97661.28;;;10.21;67.61
64460;BME280;50828;53.756;21.140;2023-03-14T18:36:51;97660.22;;;10.19;67.40
64460;BME280;50828;53.756;21.140;2023-03-14T18:42:00;97661.58;;;10.17;67.74
64460;BME280;50828;53.756;21.140;2023-03-14T18:47:09;97666.33;;;10.15;67.72
64460;BME280;50828;53.756;21.140;2023-03-14T18:52:18;97666.87;;;10.10;67.34
64460;BME280;50828;53.756;21.140;2023-03-14T18:57:26;97667.64;;;10.09;67.49
64460;BME280;50828;53.756;21.140;2023-03-14T19:02:35;97668.17;;;10.04;67.66
64460;BME280;50828;53.756;21.140;2023-03-14T19:07:44;97676.12;;;10.04;67.62
64460;BME280;50828;53.756;21.140;2023-03-14T19:12:54;97680.98;;;10.02;68.22
64460;BME280;50828;53.756;21.140;2023-03-14T19:18:03;97680.25;;;10.01;68.15
64460;BME280;50828;53.756;21.140;2023-03-14T19:23:15;97681.17;;;9.97;67.76
64460;BME280;50828;53.756;21.140;2023-03-14T19:28:25;97681.05;;;9.95;68.22
64460;BME280;50828;53.756;21.140;2023-03-14T19:33:34;97683.98;;;9.93;68.03
64460;BME280;50828;53.756;21.140;2023-03-14T19:38:42;97687.34;;;9.92;68.00
64460;BME280;50828;53.756;21.140;2023-03-14T19:43:51;97693.67;;;9.90;68.43
64460;BME280;50828;53.756;21.140;2023-03-14T19:49:00;97695.64;;;9.90;68.58
64460;BME280;50828;53.756;21.140;2023-03-14T19:54:08;97688.23;;;9.88;68.13
64460;BME280;50828;53.756;21.140;2023-03-14T19:59:17;97675.26;;;9.78;68.62
64460;BME280;50828;53.756;21.140;2023-03-14T20:04:26;97693.17;;;9.83;68.50
64460;BME280;50828;53.756;21.140;2023-03-14T20:09:35;97700.95;;;9.80;68.40
64460;BME280;50828;53.756;21.140;2023-03-14T20:14:44;97704.42;;;9.76;68.33
64460;BME280;50828;53.756;21.140;2023-03-14T20:19:52;97706.90;;;9.71;68.31
64460;BME280;50828;53.756;21.140;2023-03-14T20:25:00;97710.52;;;9.67;68.56
64460;BME280;50828;53.756;21.140;2023-03-14T20:30:13;97706.98;;;9.63;68.40
64460;BME280;50828;53.756;21.140;2023-03-14T20:35:22;97706.55;;;9.59;68.69
64460;BME280;50828;53.756;21.140;2023-03-14T20:40:31;97705.80;;;9.55;68.49
64460;BME280;50828;53.756;21.140;2023-03-14T20:45:39;97706.95;;;9.53;68.61
64460;BME280;50828;53.756;21.140;2023-03-14T20:50:48;97716.94;;;9.52;68.64
64460;BME280;50828;53.756;21.140;2023-03-14T20:55:57;97715.98;;;9.50;68.64
64460;BME280;50828;53.756;21.140;2023-03-14T21:01:05;97716.21;;;9.50;68.89
64460;BME280;50828;53.756;21.140;2023-03-14T21:06:13;97713.22;;;9.50;68.77
64460;BME280;50828;53.756;21.140;2023-03-14T21:11:21;97713.94;;;9.50;68.72
64460;BME280;50828;53.756;21.140;2023-03-14T21:16:30;97711.98;;;9.50;69.10
64460;BME280;50828;53.756;21.140;2023-03-14T21:21:38;97709.29;;;9.51;69.14
64460;BME280;50828;53.756;21.140;2023-03-14T21:26:47;97704.15;;;9.51;69.06
64460;BME280;50828;53.756;21.140;2023-03-14T21:31:55;97705.70;;;9.51;69.07
64460;BME280;50828;53.756;21.140;2023-03-14T21:37:04;97705.17;;;9.52;69.09
64460;BME280;50828;53.756;21.140;2023-03-14T21:42:12;97708.42;;;9.53;69.04
64460;BME280;50828;53.756;21.140;2023-03-14T21:47:21;97710.66;;;9.53;68.99
64460;BME280;50828;53.756;21.140;2023-03-14T21:52:30;97707.91;;;9.53;68.98
64460;BME280;50828;53.756;21.140;2023-03-14T21:57:39;97711.42;;;9.52;68.68
64460;BME280;50828;53.756;21.140;2023-03-14T22:02:51;97714.67;;;9.52;68.89
64460;BME280;50828;53.756;21.140;2023-03-14T22:08:20;97721.56;;;9.51;68.78
64460;BME280;50828;53.756;21.140;2023-03-14T22:13:28;97720.44;;;9.50;68.60
64460;BME280;50828;53.756;21.140;2023-03-14T22:18:36;97718.41;;;9.48;68.60
64460;BME280;50828;53.756;21.140;2023-03-14T22:23:43;97712.92;;;9.47;68.65
64460;BME280;50828;53.756;21.140;2023-03-14T22:28:51;97713.22;;;9.45;68.81
64460;BME280;50828;53.756;21.140;2023-03-14T22:34:00;97705.26;;;9.43;68.78
64460;BME280;50828;53.756;21.140;2023-03-14T22:39:09;97705.46;;;9.43;68.80
64460;BME280;50828;53.756;21.140;2023-03-14T22:44:18;97711.80;;;9.43;68.58
64460;BME280;50828;53.756;21.140;2023-03-14T22:49:26;97707.36;;;9.41;68.74
64460;BME280;50828;53.756;21.140;2023-03-14T22:54:35;97700.73;;;9.38;68.61
64460;BME280;50828;53.756;21.140;2023-03-14T22:59:43;97708.66;;;9.40;68.81
64460;BME280;50828;53.756;21.140;2023-03-14T23:04:51;97722.81;;;9.41;68.70
64460;BME280;50828;53.756;21.140;2023-03-14T23:10:00;97733.42;;;9.40;68.45
64460;BME280;50828;53.756;21.140;2023-03-14T23:15:11;97746.62;;;9.40;68.72
64460;BME280;50828;53.756;21.140;2023-03-14T23:20:21;97828.70;;;9.39;68.70
64460;BME280;50828;53.756;21.140;2023-03-14T23:25:28;97882.29;;;9.32;67.68
64460;BME280;50828;53.756;21.140;2023-03-14T23:30:46;97900.67;;;9.20;66.43
64460;BME280;50828;53.756;21.140;2023-03-14T23:35:55;97912.99;;;8.99;65.51
64460;BME280;50828;53.756;21.140;2023-03-14T23:41:04;97942.61;;;8.74;64.70
64460;BME280;50828;53.756;21.140;2023-03-14T23:46:13;97974.02;;;8.44;64.26
64460;BME280;50828;53.756;21.140;2023-03-14T23:51:22;98004.52;;;8.11;63.86
64460;BME280;50828;53.756;21.140;2023-03-14T23:56:31;98029.48;;;7.77;63.61
